createdAt,value
2023-05-01T00:00:53.981Z,94.24
2023-05-01T00:03:20.897Z,94.14
2023-05-01T00:05:48.312Z,94.76
2023-05-01T00:08:16.027Z,95.36
2023-05-01T00:10:42.879Z,94.30
2023-05-01T00:13:10.067Z,94.40
2023-05-01T00:15:37.011Z,95.81
2023-05-01T00:18:03.877Z,96.05
2023-05-01T00:20:31.092Z,96.81
2023-05-01T00:22:58.087Z,96.88
2023-05-01T00:25:24.976Z,96.53
2023-05-01T00:27:51.858Z,96.36
2023-05-01T00:30:18.718Z,95.49
2023-05-01T00:32:45.737Z,96.01
2023-05-01T00:35:13.332Z,96.32
2023-05-01T00:37:40.276Z,96.46
2023-05-01T00:40:07.956Z,96.42
2023-05-01T00:42:36.310Z,95.84
2023-05-01T00:45:04.303Z,96.81
2023-05-01T00:47:31.118Z,97.90
2023-05-01T00:49:59.394Z,98.01
2023-05-01T00:52:26.470Z,97.63
2023-05-01T00:54:54.224Z,96.55
2023-05-01T00:57:21.972Z,97.18
2023-05-01T00:59:49.296Z,97.55
2023-05-01T01:02:16.295Z,98.03
2023-05-01T01:04:45.886Z,97.82
2023-05-01T01:07:21.843Z,98.31
2023-05-01T01:10:08.903Z,98.81
2023-05-01T01:13:22.346Z,98.55
2023-05-01T01:15:57.642Z,99.18
2023-05-01T01:18:48.484Z,98.75
2023-05-01T01:21:28.101Z,98.75
2023-05-01T01:24:22.884Z,98.99
2023-05-01T01:26:58.886Z,99.10
2023-05-01T01:29:57.740Z,98.99
2023-05-01T01:32:40.051Z,98.46
2023-05-01T01:35:12.753Z,98.25
2023-05-01T01:38:02.348Z,98.93
2023-05-01T01:40:35.163Z,98.29
2023-05-01T01:43:10.647Z,98.87
2023-05-01T01:45:43.687Z,99.29
2023-05-01T01:48:14.830Z,99.42
2023-05-01T01:50:43.756Z,99.77
2023-05-01T01:53:13.062Z,100.74
2023-05-01T01:55:43.443Z,101.93
2023-05-01T01:58:12.581Z,100.70
2023-05-01T02:00:41.945Z,100.40
2023-05-01T02:03:10.539Z,101.33
2023-05-01T02:05:40.530Z,100.86
2023-05-01T02:08:08.938Z,100.74
2023-05-01T02:10:37.200Z,100.50
2023-05-01T02:13:05.233Z,100.61
2023-05-01T02:15:34.455Z,101.38
2023-05-01T02:18:06.287Z,100.95
2023-05-01T02:20:33.834Z,100.38
2023-05-01T02:23:02.207Z,100.68
2023-05-01T02:25:31.893Z,100.47
2023-05-01T02:28:12.414Z,100.12
2023-05-01T02:30:39.798Z,99.48
2023-05-01T02:33:09.862Z,98.87
2023-05-01T02:35:44.518Z,99.24
2023-05-01T02:38:12.914Z,99.14
2023-05-01T02:40:42.599Z,98.15
2023-05-01T02:43:12.431Z,97.92
2023-05-01T02:45:41.549Z,98.37
2023-05-01T02:48:11.228Z,97.00
2023-05-01T02:50:40.863Z,96.98
2023-05-01T02:53:08.671Z,98.71
2023-05-01T02:55:36.032Z,99.06
2023-05-01T02:58:02.860Z,97.11
2023-05-01T03:00:29.947Z,97.42
2023-05-01T03:02:56.876Z,98.10
2023-05-01T03:05:23.850Z,96.98
2023-05-01T03:07:51.161Z,98.64
2023-05-01T03:10:18.283Z,97.53
2023-05-01T03:12:45.024Z,97.06
2023-05-01T03:15:14.944Z,98.23
2023-05-01T03:17:41.776Z,98.71
2023-05-01T03:20:10.975Z,99.14
2023-05-01T03:22:37.738Z,98.10
2023-05-01T03:25:04.834Z,98.13
2023-05-01T03:27:31.640Z,98.20
2023-05-01T03:29:58.679Z,97.55
2023-05-01T03:32:25.966Z,97.65
2023-05-01T03:34:52.965Z,97.97
2023-05-01T03:37:19.819Z,98.31
2023-05-01T03:39:46.845Z,98.19
2023-05-01T03:42:13.640Z,98.42
2023-05-01T03:44:40.413Z,97.81
2023-05-01T03:47:07.206Z,97.58
2023-05-01T03:49:34.021Z,98.94
2023-05-01T03:52:00.938Z,98.44
2023-05-01T03:54:27.892Z,98.64
2023-05-01T03:56:54.715Z,98.82
2023-05-01T03:59:21.483Z,99.53
2023-05-01T04:01:48.422Z,99.13
2023-05-01T04:04:15.609Z,99.12
2023-05-01T04:06:42.627Z,99.69
2023-05-01T04:09:09.431Z,100.16
2023-05-01T04:11:36.260Z,99.98
2023-05-01T04:14:03.135Z,99.77
2023-05-01T04:16:30.758Z,99.33
2023-05-01T04:18:57.586Z,99.03
2023-05-01T04:21:24.454Z,99.50
2023-05-01T04:23:51.314Z,98.73
2023-05-01T04:26:18.132Z,98.19
2023-05-01T04:28:44.900Z,99.07
2023-05-01T04:31:11.691Z,99.12
2023-05-01T04:33:38.548Z,98.86
2023-05-01T04:36:05.682Z,101.55
2023-05-01T04:38:32.923Z,99.58
2023-05-01T04:40:59.735Z,97.44
2023-05-01T04:43:26.474Z,97.02
2023-05-01T04:45:54.573Z,95.43
2023-05-01T04:48:21.436Z,94.90
2023-05-01T04:50:48.301Z,94.56
2023-05-01T04:53:15.289Z,93.44
2023-05-01T04:55:42.128Z,92.50
2023-05-01T04:58:08.868Z,92.72
2023-05-01T05:00:35.614Z,93.53
2023-05-01T05:03:02.539Z,93.61
2023-05-01T05:05:29.443Z,92.41
2023-05-01T05:07:56.266Z,92.13
2023-05-01T05:10:23.240Z,91.13
2023-05-01T05:12:50.612Z,91.53
2023-05-01T05:15:17.453Z,90.95
2023-05-01T05:17:45.703Z,90.98
2023-05-01T05:20:12.612Z,91.15
2023-05-01T05:22:39.494Z,91.60
2023-05-01T05:25:06.903Z,90.57
2023-05-01T05:27:38.235Z,90.93
2023-05-01T05:30:06.176Z,89.42
2023-05-01T05:32:33.785Z,89.53
2023-05-01T05:35:00.889Z,90.08
2023-05-01T05:37:27.806Z,88.64
2023-05-01T05:39:54.824Z,89.06
2023-05-01T05:42:21.763Z,89.36
2023-05-01T05:44:48.668Z,88.11
2023-05-01T05:47:15.462Z,87.67
2023-05-01T05:49:42.364Z,86.86
2023-05-01T05:52:09.164Z,85.03
2023-05-01T05:54:35.883Z,86.55
2023-05-01T05:57:03.828Z,86.78
2023-05-01T05:59:30.685Z,86.58
2023-05-01T06:01:57.780Z,86.95
2023-05-01T06:04:24.605Z,86.90
2023-05-01T06:06:51.553Z,86.16
2023-05-01T06:09:19.026Z,84.23
2023-05-01T06:11:46.142Z,86.01
2023-05-01T06:14:12.955Z,85.92
2023-05-01T06:16:42.682Z,84.46
2023-05-01T06:19:12.177Z,83.20
2023-05-01T06:21:39.096Z,78.82
2023-05-01T06:24:06.177Z,78.49
2023-05-01T06:26:33.017Z,73.77
2023-05-01T06:28:59.853Z,70.52
2023-05-01T06:31:27.166Z,62.75
2023-05-01T06:33:54.129Z,59.81
2023-05-01T06:36:21.110Z,59.70
2023-05-01T06:38:49.308Z,59.57
2023-05-01T06:41:16.878Z,59.06
2023-05-01T06:43:43.768Z,56.07
2023-05-01T06:46:10.648Z,57.51
2023-05-01T06:48:37.574Z,58.91
2023-05-01T06:51:04.735Z,59.94
2023-05-01T06:53:31.647Z,60.53
2023-05-01T06:55:58.356Z,61.29
2023-05-01T06:58:25.141Z,62.92
2023-05-01T07:00:53.638Z,61.09
2023-05-01T07:03:21.334Z,59.06
2023-05-01T07:05:48.264Z,57.73
2023-05-01T07:08:15.028Z,57.51
2023-05-01T07:10:42.289Z,57.41
2023-05-01T07:13:09.565Z,58.15
2023-05-01T07:15:36.480Z,55.71
2023-05-01T07:18:06.111Z,56.87
2023-05-01T07:20:33.416Z,55.23
2023-05-01T07:23:00.900Z,56.65
2023-05-01T07:25:27.665Z,55.46
2023-05-01T07:27:54.919Z,56.36
2023-05-01T07:30:22.208Z,54.65
2023-05-01T07:32:49.025Z,56.87
2023-05-01T07:35:15.943Z,55.49
2023-05-01T07:37:42.700Z,56.10
2023-05-01T07:40:09.935Z,52.49
2023-05-01T07:42:36.793Z,52.20
2023-05-01T07:45:03.809Z,52.36
2023-05-01T07:47:30.740Z,54.64
2023-05-01T07:49:57.946Z,52.72
2023-05-01T07:52:25.150Z,52.73
2023-05-01T07:54:52.197Z,53.04
2023-05-01T07:57:19.613Z,52.79
2023-05-01T07:59:46.870Z,51.80
2023-05-01T08:02:14.042Z,50.19
2023-05-01T08:04:41.718Z,51.88
2023-05-01T08:07:08.840Z,51.73
2023-05-01T08:09:36.482Z,51.43
2023-05-01T08:12:13.803Z,52.11
2023-05-01T08:14:40.651Z,51.02
2023-05-01T08:17:07.420Z,50.65
2023-05-01T08:19:34.917Z,50.46
2023-05-01T08:22:02.060Z,48.02
2023-05-01T08:24:29.766Z,50.32
2023-05-01T08:26:56.935Z,47.24
2023-05-01T08:29:23.870Z,46.69
2023-05-01T08:31:50.612Z,46.06
2023-05-01T08:34:17.665Z,46.52
2023-05-01T08:36:44.575Z,46.11
2023-05-01T08:39:11.978Z,45.35
2023-05-01T08:41:39.856Z,44.60
2023-05-01T08:44:08.778Z,44.79
2023-05-01T08:46:48.119Z,42.63
2023-05-01T08:49:17.300Z,41.36
2023-05-01T08:51:52.537Z,41.00
2023-05-01T08:54:20.848Z,39.46
2023-05-01T08:56:47.903Z,38.71
2023-05-01T08:59:15.187Z,38.48
2023-05-01T09:01:45.703Z,37.54
2023-05-01T09:04:13.379Z,36.99
2023-05-01T09:06:40.616Z,35.06
2023-05-01T09:09:08.270Z,34.41
2023-05-01T09:11:34.981Z,33.57
2023-05-01T09:14:05.667Z,32.06
2023-05-01T09:16:32.915Z,33.14
2023-05-01T09:18:59.870Z,33.23
2023-05-01T09:21:31.723Z,30.83
2023-05-01T09:23:58.520Z,30.87
2023-05-01T09:26:26.894Z,31.09
2023-05-01T09:28:58.073Z,31.65
2023-05-01T09:31:29.979Z,31.34
2023-05-01T09:34:01.946Z,31.36
2023-05-01T09:36:31.145Z,31.38
2023-05-01T09:39:02.063Z,30.55
2023-05-01T09:41:31.625Z,29.39
2023-05-01T09:43:59.549Z,29.61
2023-05-01T09:46:27.484Z,27.71
2023-05-01T09:48:59.864Z,28.00
2023-05-01T09:51:37.127Z,27.32
2023-05-01T09:54:05.218Z,25.62
2023-05-01T09:56:46.009Z,26.78
2023-05-01T09:59:20.760Z,27.67
2023-05-01T10:01:50.086Z,27.91
2023-05-01T10:04:18.371Z,26.78
2023-05-01T10:06:46.186Z,25.33
2023-05-01T10:09:28.012Z,27.65
2023-05-01T10:11:57.757Z,25.81
2023-05-01T10:14:26.728Z,24.93
2023-05-01T10:16:53.985Z,24.70
2023-05-01T10:19:21.657Z,25.94
2023-05-01T10:21:48.758Z,28.42
2023-05-01T10:24:16.989Z,27.59
2023-05-01T10:26:45.767Z,26.28
2023-05-01T10:29:13.036Z,24.91
2023-05-01T10:31:42.253Z,24.92
2023-05-01T10:34:11.837Z,26.28
2023-05-01T10:36:46.305Z,25.93
2023-05-01T10:39:36.508Z,26.60
2023-05-01T10:42:11.157Z,26.74
2023-05-01T10:44:38.267Z,26.47
2023-05-01T10:47:31.464Z,22.65
2023-05-01T10:50:09.163Z,24.11
2023-05-01T10:53:25.236Z,25.41
2023-05-01T10:55:52.085Z,24.41
2023-05-01T10:58:42.190Z,25.33
2023-05-01T11:01:40.962Z,24.61
2023-05-01T11:04:49.221Z,24.50
2023-05-01T11:07:18.386Z,24.77
2023-05-01T11:09:46.973Z,24.91
2023-05-01T11:12:15.065Z,24.64
2023-05-01T11:14:54.628Z,24.98
2023-05-01T11:17:39.995Z,24.11
2023-05-01T11:20:07.689Z,24.06
2023-05-01T11:22:35.964Z,24.30
2023-05-01T11:25:06.721Z,23.91
2023-05-01T11:27:33.553Z,24.99
2023-05-01T11:30:00.410Z,24.04
2023-05-01T11:32:30.071Z,22.62
2023-05-01T11:34:57.856Z,23.37
2023-05-01T11:37:44.782Z,23.40
2023-05-01T11:40:29.006Z,23.60
2023-05-01T11:43:06.008Z,23.62
2023-05-01T11:45:33.982Z,23.52
2023-05-01T11:48:04.623Z,22.85
2023-05-01T11:50:36.763Z,21.73
2023-05-01T11:53:15.790Z,23.02
2023-05-01T11:55:43.408Z,22.37
2023-05-01T11:58:10.635Z,21.04
2023-05-01T12:00:42.508Z,21.70
2023-05-01T12:03:12.173Z,22.03
2023-05-01T12:05:42.352Z,23.31
2023-05-01T12:08:18.485Z,22.05
2023-05-01T12:10:48.171Z,22.86
2023-05-01T12:13:16.313Z,24.08
2023-05-01T12:15:47.865Z,22.72
2023-05-01T12:18:17.194Z,23.30
2023-05-01T12:20:45.346Z,22.63
2023-05-01T12:23:13.800Z,24.26
2023-05-01T12:25:41.047Z,22.24
2023-05-01T12:28:16.042Z,23.50
2023-05-01T12:30:43.695Z,22.36
2023-05-01T12:33:22.960Z,22.68
2023-05-01T12:35:50.706Z,22.50
2023-05-01T12:38:22.243Z,23.08
2023-05-01T12:40:57.695Z,23.39
2023-05-01T12:43:36.051Z,24.02
2023-05-01T12:46:04.902Z,24.46
2023-05-01T12:48:34.932Z,25.04
2023-05-01T12:51:01.813Z,24.73
2023-05-01T12:53:29.642Z,25.21
2023-05-01T12:55:58.123Z,26.67
2023-05-01T12:58:37.635Z,24.36
2023-05-01T13:01:05.200Z,25.26
2023-05-01T13:03:33.760Z,25.27
2023-05-01T13:06:03.476Z,24.66
2023-05-01T13:08:36.790Z,25.19
2023-05-01T13:11:17.816Z,23.82
2023-05-01T13:13:45.569Z,24.33
2023-05-01T13:16:14.196Z,23.40
2023-05-01T13:18:51.923Z,23.81
2023-05-01T13:21:21.460Z,23.32
2023-05-01T13:23:59.699Z,23.40
2023-05-01T13:26:32.830Z,21.86
2023-05-01T13:29:02.115Z,22.02
2023-05-01T13:31:29.431Z,23.34
2023-05-01T13:33:58.721Z,20.98
2023-05-01T13:36:28.857Z,21.84
2023-05-01T13:38:57.138Z,21.50
2023-05-01T13:41:26.282Z,23.11
2023-05-01T13:43:56.021Z,22.53
2023-05-01T13:46:25.009Z,21.90
2023-05-01T13:48:52.198Z,21.42
2023-05-01T13:51:27.153Z,22.34
2023-05-01T13:53:56.501Z,22.27
2023-05-01T13:56:23.468Z,21.75
2023-05-01T13:58:50.701Z,21.68
2023-05-01T14:01:23.916Z,21.19
2023-05-01T14:03:50.901Z,22.31
2023-05-01T14:06:19.719Z,20.73
2023-05-01T14:08:48.385Z,19.77
2023-05-01T14:11:16.091Z,20.50
2023-05-01T14:13:44.636Z,21.14
2023-05-01T14:16:25.665Z,21.46
2023-05-01T14:18:56.875Z,20.22
2023-05-01T14:21:27.323Z,20.47
2023-05-01T14:23:55.593Z,20.98
2023-05-01T14:26:24.184Z,20.03
2023-05-01T14:28:51.132Z,19.96
2023-05-01T14:31:25.233Z,19.74
2023-05-01T14:34:04.307Z,19.70
2023-05-01T14:36:32.554Z,20.36
2023-05-01T14:39:00.736Z,20.19
2023-05-01T14:41:27.854Z,20.22
2023-05-01T14:43:54.877Z,20.28
2023-05-01T14:46:30.574Z,19.59
2023-05-01T14:48:59.151Z,19.29
2023-05-01T14:51:26.218Z,19.67
2023-05-01T14:53:53.331Z,20.08
2023-05-01T14:56:21.108Z,20.40
2023-05-01T14:58:47.956Z,19.74
2023-05-01T15:01:15.200Z,19.74
2023-05-01T15:03:43.817Z,19.95
2023-05-01T15:06:11.339Z,20.14
2023-05-01T15:08:38.789Z,20.17
2023-05-01T15:11:05.781Z,19.92
2023-05-01T15:13:32.626Z,19.37
2023-05-01T15:15:59.486Z,20.15
2023-05-01T15:18:26.447Z,20.70
2023-05-01T15:20:53.437Z,21.66
2023-05-01T15:23:20.587Z,20.76
2023-05-01T15:25:47.958Z,21.37
2023-05-01T15:28:14.976Z,20.87
2023-05-01T15:30:46.661Z,20.89
2023-05-01T15:33:16.879Z,21.85
2023-05-01T15:35:46.156Z,21.92
2023-05-01T15:38:13.010Z,21.97
2023-05-01T15:40:39.931Z,22.43
2023-05-01T15:43:06.744Z,23.79
2023-05-01T15:45:33.666Z,23.01
2023-05-01T15:48:01.165Z,23.55
2023-05-01T15:50:28.275Z,23.59
2023-05-01T15:52:55.206Z,22.55
2023-05-01T15:55:22.001Z,22.88
2023-05-01T15:57:48.933Z,23.71
2023-05-01T16:00:17.193Z,23.69
2023-05-01T16:02:44.657Z,24.17
2023-05-01T16:05:14.250Z,24.59
2023-05-01T16:07:41.248Z,25.45
2023-05-01T16:10:08.964Z,24.50
2023-05-01T16:12:35.966Z,25.75
2023-05-01T16:15:04.557Z,27.06
2023-05-01T16:17:43.575Z,27.91
2023-05-01T16:20:12.948Z,28.36
2023-05-01T16:22:41.413Z,29.31
2023-05-01T16:25:09.701Z,29.73
2023-05-01T16:27:41.294Z,28.22
2023-05-01T16:30:09.272Z,28.89
2023-05-01T16:32:36.488Z,29.57
2023-05-01T16:35:05.672Z,30.24
2023-05-01T16:37:34.163Z,33.35
2023-05-01T16:40:01.977Z,34.36
2023-05-01T16:42:29.105Z,33.86
2023-05-01T16:44:56.850Z,35.23
2023-05-01T16:47:23.728Z,37.53
2023-05-01T16:49:52.386Z,38.45
2023-05-01T16:52:19.235Z,38.67
2023-05-01T16:54:46.259Z,39.43
2023-05-01T16:57:13.094Z,40.28
2023-05-01T16:59:39.873Z,40.93
2023-05-01T17:02:07.359Z,41.85
2023-05-01T17:04:34.466Z,42.77
2023-05-01T17:07:01.291Z,44.51
2023-05-01T17:09:28.218Z,44.44
2023-05-01T17:11:59.160Z,45.65
2023-05-01T17:14:28.759Z,45.51
2023-05-01T17:16:56.104Z,45.40
2023-05-01T17:19:23.054Z,46.86
2023-05-01T17:21:50.039Z,47.20
2023-05-01T17:24:16.917Z,46.91
2023-05-01T17:26:43.748Z,45.91
2023-05-01T17:29:10.553Z,46.28
2023-05-01T17:31:37.462Z,46.70
2023-05-01T17:34:04.301Z,46.67
2023-05-01T17:36:31.749Z,47.38
2023-05-01T17:39:01.345Z,47.04
2023-05-01T17:41:28.261Z,47.09
2023-05-01T17:43:55.226Z,46.96
2023-05-01T17:46:22.034Z,48.04
2023-05-01T17:48:49.125Z,47.79
2023-05-01T17:51:15.970Z,47.99
2023-05-01T17:53:42.685Z,48.58
2023-05-01T17:56:09.518Z,48.74
2023-05-01T17:58:36.412Z,49.05
2023-05-01T18:01:04.743Z,49.40
2023-05-01T18:03:34.688Z,49.88
2023-05-01T18:06:02.612Z,52.01
2023-05-01T18:08:29.583Z,51.98
2023-05-01T18:10:56.610Z,52.85
2023-05-01T18:13:27.975Z,53.85
2023-05-01T18:15:55.950Z,53.25
2023-05-01T18:18:23.232Z,52.65
2023-05-01T18:20:50.089Z,53.85
2023-05-01T18:23:18.695Z,56.13
2023-05-01T18:25:46.459Z,56.55
2023-05-01T18:28:16.330Z,56.36
2023-05-01T18:30:43.336Z,54.13
2023-05-01T18:33:10.295Z,52.92
2023-05-01T18:35:39.827Z,52.01
2023-05-01T18:38:06.717Z,56.68
2023-05-01T18:40:33.499Z,54.16
2023-05-01T18:43:00.361Z,53.17
2023-05-01T18:45:27.321Z,60.22
2023-05-01T18:47:54.242Z,60.50
2023-05-01T18:50:22.067Z,56.73
2023-05-01T18:52:49.246Z,59.03
2023-05-01T18:55:16.510Z,59.70
2023-05-01T18:57:44.319Z,57.97
2023-05-01T19:00:14.459Z,58.56
2023-05-01T19:02:41.673Z,58.29
2023-05-01T19:05:09.080Z,58.22
2023-05-01T19:07:36.095Z,57.26
2023-05-01T19:10:03.710Z,57.55
2023-05-01T19:12:30.852Z,57.22
2023-05-01T19:14:57.695Z,56.21
2023-05-01T19:17:24.601Z,56.84
2023-05-01T19:19:51.498Z,56.53
2023-05-01T19:22:18.442Z,58.01
2023-05-01T19:24:46.082Z,57.39
2023-05-01T19:27:13.046Z,58.73
2023-05-01T19:29:40.061Z,62.47
2023-05-01T19:32:07.254Z,66.59
2023-05-01T19:34:34.172Z,73.15
2023-05-01T19:37:27.262Z,75.89
2023-05-01T19:39:54.093Z,76.66
2023-05-01T19:42:20.870Z,76.18
2023-05-01T19:44:47.697Z,76.01
2023-05-01T19:47:14.614Z,78.63
2023-05-01T19:49:41.466Z,79.99
2023-05-01T19:52:10.264Z,77.73
2023-05-01T19:54:37.025Z,78.78
2023-05-01T19:57:04.467Z,79.44
2023-05-01T19:59:31.514Z,77.46
2023-05-01T20:02:00.453Z,74.93
2023-05-01T20:04:28.766Z,76.45
2023-05-01T20:06:55.723Z,78.95
2023-05-01T20:09:22.799Z,82.43
2023-05-01T20:11:49.738Z,82.52
2023-05-01T20:14:16.665Z,80.41
2023-05-01T20:16:43.575Z,76.21
2023-05-01T20:19:10.668Z,77.10
2023-05-01T20:21:37.570Z,78.63
2023-05-01T20:24:04.398Z,79.46
2023-05-01T20:26:31.150Z,83.98
2023-05-01T20:28:58.055Z,84.64
2023-05-01T20:31:24.880Z,83.87
2023-05-01T20:33:51.782Z,83.38
2023-05-01T20:36:18.769Z,81.73
2023-05-01T20:38:47.548Z,84.11
2023-05-01T20:41:14.925Z,86.01
2023-05-01T20:43:41.675Z,86.22
2023-05-01T20:46:08.507Z,85.92
2023-05-01T20:48:35.415Z,86.29
2023-05-01T20:51:02.148Z,87.20
2023-05-01T20:53:29.000Z,86.40
2023-05-01T20:55:55.916Z,85.99
2023-05-01T20:58:22.640Z,86.29
2023-05-01T21:00:49.448Z,84.90
2023-05-01T21:03:16.343Z,83.99
2023-05-01T21:05:43.349Z,84.74
2023-05-01T21:08:10.181Z,84.61
2023-05-01T21:10:37.081Z,86.10
2023-05-01T21:13:03.973Z,87.25
2023-05-01T21:15:32.118Z,87.44
2023-05-01T21:17:59.428Z,89.28
2023-05-01T21:20:35.476Z,90.63
2023-05-01T21:23:02.527Z,90.94
2023-05-01T21:25:31.794Z,87.52
2023-05-01T21:28:03.617Z,86.62
2023-05-01T21:30:33.247Z,85.00
2023-05-01T21:33:01.308Z,82.58
2023-05-01T21:35:30.051Z,82.94
2023-05-01T21:37:57.685Z,78.12
2023-05-01T21:40:25.533Z,77.92
2023-05-01T21:42:56.449Z,75.60
2023-05-01T21:45:24.485Z,75.37
2023-05-01T21:47:51.902Z,74.02
2023-05-01T21:50:21.482Z,73.74
2023-05-01T21:52:49.490Z,74.31
2023-05-01T21:55:21.824Z,73.80
2023-05-01T21:57:53.119Z,72.53
2023-05-01T22:00:21.273Z,72.80
2023-05-01T22:02:49.653Z,72.44
2023-05-01T22:05:19.918Z,71.15
2023-05-01T22:07:47.360Z,71.67
2023-05-01T22:10:17.039Z,72.67
2023-05-01T22:12:44.829Z,71.10
2023-05-01T22:15:13.611Z,70.73
2023-05-01T22:17:41.185Z,70.27
2023-05-01T22:20:09.205Z,70.13
2023-05-01T22:22:37.429Z,70.89
2023-05-01T22:25:04.893Z,71.95
2023-05-01T22:27:32.207Z,71.48
2023-05-01T22:29:59.535Z,71.16
2023-05-01T22:32:26.915Z,70.90
2023-05-01T22:34:53.725Z,71.19
2023-05-01T22:37:20.491Z,71.19
2023-05-01T22:39:47.235Z,71.36
2023-05-01T22:42:14.011Z,71.42
2023-05-01T22:44:40.896Z,72.84
2023-05-01T22:47:07.772Z,72.25
2023-05-01T22:49:34.575Z,73.47
2023-05-01T22:52:03.155Z,74.88
2023-05-01T22:54:30.062Z,75.91
2023-05-01T22:56:56.809Z,76.10
2023-05-01T22:59:24.022Z,78.19
2023-05-01T23:01:50.845Z,78.68
2023-05-01T23:04:17.954Z,79.17
2023-05-01T23:06:45.015Z,79.37
2023-05-01T23:09:12.298Z,79.83
2023-05-01T23:11:40.611Z,79.64
2023-05-01T23:14:07.533Z,79.38
2023-05-01T23:16:41.799Z,79.08
2023-05-01T23:19:24.904Z,79.92
2023-05-01T23:22:08.585Z,79.36
2023-05-01T23:24:49.602Z,80.64
2023-05-01T23:27:17.905Z,81.23
2023-05-01T23:29:57.338Z,80.49
2023-05-01T23:32:30.471Z,81.62
2023-05-01T23:35:20.661Z,82.17
2023-05-01T23:37:47.733Z,83.32
2023-05-01T23:40:14.498Z,83.16
2023-05-01T23:42:41.419Z,84.27
2023-05-01T23:45:08.419Z,84.08
2023-05-01T23:47:35.841Z,84.82
2023-05-01T23:50:03.195Z,85.13
2023-05-01T23:52:30.085Z,86.26
2023-05-01T23:54:56.889Z,86.07
2023-05-01T23:57:23.974Z,86.98
2023-05-01T23:59:50.801Z,87.61
